Terminal Aerodrome Forecast
Issued by NWS Lake Charles, LA

Home | Current Version | Previous Version | Text Only | Print | Product List | Glossary On
Versions: 1 2 3 4 5 6 7 8 9 10 11 12 13 14 15 16 17 18 19 20
000
FTUS44 KLCH 241300 AAA
TAFLFT
TAF AMD
KLFT 241315Z 2413/2512 00000KT 2SM BR BKN025
     FM241400 18007KT P6SM BKN025
     FM241800 20011G17KT P6SM SCT035
     FM250000 19008KT P6SM BKN020
     FM250600 VRB04KT 5SM BR OVC009=

USA.gov is the U.S. government's official web portal to all federal, state and local government web resources and services.